Aviation Digital Data Service (ADDS)

Output produced by METARs form (0521 UTC 16 February 2019)
found at http://www.aviationweather.gov/metar/data/
 
METAR text: DNMN 152300Z 04028KT 2500 HZ NSC 27/04 Q1010
Conditions at: DNMN (MINNA AIRPORT , NG) observed 2300 UTC 15 February 2019
Temperature: 27.0°C (81°F)
Dewpoint: 4.0°C (39°F) [RH = 23%]
Pressure (altimeter): 29.82 inches Hg (1010.0 mb)
Winds: from the NE (40 degrees) at 32 MPH (28 knots; 14.4 m/s)
Visibility: 1.55 miles (2.49 km)
Ceiling: at least 12,000 feet AGL
Clouds: sky clear below 12,000 feet AGL
Weather: HZ  (haze)

METAR text: DNMN 152200Z 02024KT 3000 HZ NSC 29/04 Q1010
Conditions at: DNMN (MINNA AIRPORT , NG) observed 2200 UTC 15 February 2019
Temperature: 29.0°C (84°F)
Dewpoint: 4.0°C (39°F) [RH = 20%]
Pressure (altimeter): 29.82 inches Hg (1010.0 mb)
Winds: from the NNE (20 degrees) at 28 MPH (24 knots; 12.3 m/s)
Visibility: 1.86 miles (2.99 km)
Ceiling: at least 12,000 feet AGL
Clouds: sky clear below 12,000 feet AGL
Weather: HZ  (haze)

METAR text: DNMN 151400Z 02009KT 5000 HZ NSC 34/07 Q1009
Conditions at: DNMN (MINNA AIRPORT , NG) observed 1400 UTC 15 February 2019
Temperature: 34.0°C (93°F)
Dewpoint: 7.0°C (45°F) [RH = 19%]
Pressure (altimeter): 29.79 inches Hg (1009.0 mb)
Winds: from the NNE (20 degrees) at 10 MPH (9 knots; 4.6 m/s)
Visibility: 3 miles ( 5 km)
Ceiling: at least 12,000 feet AGL
Clouds: sky clear below 12,000 feet AGL
Weather: HZ  (haze)

METAR text: DNMN 150100Z 05023KT 4000 HZ NSC 25/00 Q1010
Conditions at: DNMN (MINNA AIRPORT , NG) observed 0100 UTC 15 February 2019
Temperature: 25.0°C (77°F)
Dewpoint: 0.0°C (32°F) [RH = 19%]
Pressure (altimeter): 29.82 inches Hg (1010.0 mb)
Winds: from the NE (50 degrees) at 26 MPH (23 knots; 11.8 m/s)
Visibility: 2.49 miles (4.01 km)
Ceiling: at least 12,000 feet AGL
Clouds: sky clear below 12,000 feet AGL
Weather: HZ  (haze)

METAR text: DNMN 150000Z 04021KT 4000 HZ NSC 26/00 Q1010
Conditions at: DNMN (MINNA AIRPORT , NG) observed 0000 UTC 15 February 2019
Temperature: 26.0°C (79°F)
Dewpoint: 0.0°C (32°F) [RH = 18%]
Pressure (altimeter): 29.82 inches Hg (1010.0 mb)
Winds: from the NE (40 degrees) at 24 MPH (21 knots; 10.8 m/s)
Visibility: 2.49 miles (4.01 km)
Ceiling: at least 12,000 feet AGL
Clouds: sky clear below 12,000 feet AGL
Weather: HZ  (haze)

METAR text: DNMN 141900Z 03006KT 4000 HZ NSC 30/06 Q1009
Conditions at: DNMN (MINNA AIRPORT , NG) observed 1900 UTC 14 February 2019
Temperature: 30.0°C (86°F)
Dewpoint: 6.0°C (43°F) [RH = 22%]
Pressure (altimeter): 29.79 inches Hg (1009.0 mb)
Winds: from the NNE (30 degrees) at 7 MPH (6 knots; 3.1 m/s)
Visibility: 2.49 miles (4.01 km)
Ceiling: at least 12,000 feet AGL
Clouds: sky clear below 12,000 feet AGL
Weather: HZ  (haze)

Forecast for: DNMN (MINNA AIRPORT , NG)
Text: TAF DNMN 152130Z 1600/1706 02015G30KT 3000 HZ NSC
Forecast period: 0000 UTC 16 February 2019 to 0600 UTC 17 February 2019
Forecast type: FROM: standard forecast or significant change
Winds: from the NNE (20 degrees) at 17 MPH (15 knots; 7.7 m/s)
gusting to 34 MPH (30 knots; 15.4 m/s)
Visibility: 1.86 miles (2.99 km)
Ceiling: unknown
Clouds: missing
Weather: HZ  (haze)
Text: TEMPO 1602/1609 1500
Forecast period: 0200 to 0900 UTC 16 February 2019
Forecast type: TEMPORARY: The following changes expected for less than half the time period
Visibility: 0.93 miles (1.50 km)
Ceiling: unknown
Clouds: missing
Weather: no significant weather forecast for this period